createdAt,value
2022-10-17T00:00:50.139Z,64.51
2022-10-17T00:03:17.970Z,65.14
2022-10-17T00:05:47.704Z,64.74
2022-10-17T00:08:16.615Z,64.87
2022-10-17T00:10:43.122Z,65.44
2022-10-17T00:13:11.114Z,64.89
2022-10-17T00:15:38.607Z,65.34
2022-10-17T00:18:05.210Z,65.63
2022-10-17T00:20:35.620Z,65.56
2022-10-17T00:23:02.272Z,65.73
2022-10-17T00:25:28.818Z,65.88
2022-10-17T00:27:55.328Z,65.31
2022-10-17T00:30:21.848Z,65.37
2022-10-17T00:32:48.447Z,65.38
2022-10-17T00:35:15.109Z,65.91
2022-10-17T00:37:41.682Z,65.75
2022-10-17T00:40:09.388Z,66.36
2022-10-17T00:42:36.012Z,66.37
2022-10-17T00:45:05.380Z,66.53
2022-10-17T00:47:35.406Z,66.37
2022-10-17T00:50:04.800Z,66.36
2022-10-17T00:52:32.736Z,66.06
2022-10-17T00:55:24.349Z,65.68
2022-10-17T00:57:52.611Z,65.65
2022-10-17T01:00:19.513Z,65.57
2022-10-17T01:02:46.263Z,65.61
2022-10-17T01:05:13.939Z,65.41
2022-10-17T01:07:42.904Z,65.51
2022-10-17T01:10:12.839Z,65.89
2022-10-17T01:12:52.536Z,65.23
2022-10-17T01:15:41.458Z,65.86
2022-10-17T01:18:32.702Z,65.43
2022-10-17T01:21:23.480Z,65.19
2022-10-17T01:24:05.033Z,65.20
2022-10-17T01:26:58.026Z,65.05
2022-10-17T01:29:34.312Z,65.42
2022-10-17T01:32:42.489Z,65.18
2022-10-17T01:35:12.030Z,66.49
2022-10-17T01:38:13.298Z,66.18
2022-10-17T01:40:53.535Z,65.96
2022-10-17T01:43:31.388Z,65.94
2022-10-17T01:46:15.300Z,66.37
2022-10-17T01:48:45.758Z,65.42
2022-10-17T01:51:21.275Z,65.48
2022-10-17T01:53:57.146Z,64.98
2022-10-17T01:56:29.960Z,65.33
2022-10-17T01:59:04.703Z,65.15
2022-10-17T02:01:32.332Z,65.38
2022-10-17T02:04:02.549Z,65.54
2022-10-17T02:06:29.116Z,64.99
2022-10-17T02:08:57.842Z,64.80
2022-10-17T02:11:27.266Z,64.74
2022-10-17T02:14:06.096Z,64.53
2022-10-17T02:16:35.818Z,64.75
2022-10-17T02:19:40.722Z,64.64
2022-10-17T02:22:41.108Z,64.42
2022-10-17T02:25:34.586Z,64.04
2022-10-17T02:28:16.221Z,64.41
2022-10-17T02:30:53.207Z,64.31
2022-10-17T02:33:33.041Z,64.52
2022-10-17T02:36:08.830Z,64.28
2022-10-17T02:38:35.843Z,64.40
2022-10-17T02:41:06.286Z,64.10
2022-10-17T02:43:36.117Z,64.19
2022-10-17T02:46:02.882Z,64.25
2022-10-17T02:48:51.946Z,64.49
2022-10-17T02:51:37.390Z,64.65
2022-10-17T02:54:17.972Z,65.47
2022-10-17T02:56:53.337Z,64.91
2022-10-17T02:59:25.228Z,65.56
2022-10-17T03:01:52.257Z,65.28
2022-10-17T03:04:19.634Z,65.41
2022-10-17T03:06:48.115Z,65.05
2022-10-17T03:09:15.290Z,65.46
2022-10-17T03:11:42.083Z,65.78
2022-10-17T03:14:08.810Z,65.92
2022-10-17T03:16:35.328Z,65.80
2022-10-17T03:19:02.035Z,65.57
2022-10-17T03:21:28.551Z,66.17
2022-10-17T03:23:55.056Z,65.56
2022-10-17T03:26:23.339Z,65.88
2022-10-17T03:28:53.477Z,65.53
2022-10-17T03:31:22.176Z,66.12
2022-10-17T03:33:48.938Z,66.32
2022-10-17T03:36:18.639Z,65.95
2022-10-17T03:38:46.532Z,65.71
2022-10-17T03:41:13.663Z,65.33
2022-10-17T03:43:40.666Z,65.55
2022-10-17T03:46:07.918Z,65.90
2022-10-17T03:48:34.539Z,66.00
2022-10-17T03:51:06.343Z,66.32
2022-10-17T03:53:33.139Z,66.87
2022-10-17T03:56:28.992Z,66.80
2022-10-17T03:58:56.017Z,66.20
2022-10-17T04:01:23.258Z,65.86
2022-10-17T04:03:52.117Z,66.23
2022-10-17T04:06:19.507Z,66.25
2022-10-17T04:08:46.002Z,66.16
2022-10-17T04:11:18.332Z,65.62
2022-10-17T04:13:46.133Z,65.73
2022-10-17T04:16:15.850Z,65.89
2022-10-17T04:18:42.896Z,65.98
2022-10-17T04:21:09.965Z,65.76
2022-10-17T04:23:36.480Z,66.04
2022-10-17T04:26:04.590Z,66.34
2022-10-17T04:28:32.699Z,66.62
2022-10-17T04:31:06.255Z,66.16
2022-10-17T04:33:34.354Z,66.58
2022-10-17T04:36:04.270Z,66.44
2022-10-17T04:38:31.699Z,65.90
2022-10-17T04:41:03.382Z,67.03
2022-10-17T04:43:35.124Z,66.96
2022-10-17T04:46:05.475Z,67.02
2022-10-17T04:48:32.853Z,66.08
2022-10-17T04:51:08.694Z,66.45
2022-10-17T04:53:37.168Z,65.75
2022-10-17T04:56:12.712Z,65.77
2022-10-17T04:58:39.731Z,66.01
2022-10-17T05:01:25.320Z,65.63
2022-10-17T05:03:52.713Z,66.27
2022-10-17T05:06:24.988Z,65.83
2022-10-17T05:08:51.882Z,66.02
2022-10-17T05:11:22.867Z,66.02
2022-10-17T05:13:55.340Z,66.24
2022-10-17T05:16:23.366Z,66.66
2022-10-17T05:18:53.046Z,66.20
2022-10-17T05:21:21.737Z,65.52
2022-10-17T05:23:48.374Z,65.57
2022-10-17T05:26:15.319Z,66.13
2022-10-17T05:28:42.027Z,66.90
2022-10-17T05:31:10.620Z,66.37
2022-10-17T05:33:38.760Z,66.55
2022-10-17T05:36:06.936Z,66.63
2022-10-17T05:38:42.567Z,65.91
2022-10-17T05:41:10.407Z,65.44
2022-10-17T05:43:36.954Z,65.54
2022-10-17T05:46:05.858Z,65.77
2022-10-17T05:48:33.151Z,65.64
2022-10-17T05:51:03.660Z,65.59
2022-10-17T05:53:32.211Z,65.95
2022-10-17T05:56:01.647Z,66.75
2022-10-17T06:01:15.515Z,66.48
2022-10-17T06:03:42.304Z,66.25
2022-10-17T06:06:11.760Z,66.84
2022-10-17T06:08:38.778Z,66.42
2022-10-17T06:11:09.125Z,66.40
2022-10-17T06:13:37.383Z,66.61
2022-10-17T06:16:04.301Z,66.58
2022-10-17T06:18:30.856Z,66.18
2022-10-17T06:21:09.446Z,66.16
2022-10-17T06:23:35.985Z,66.40
2022-10-17T06:26:04.856Z,65.75
2022-10-17T06:28:31.620Z,65.96
2022-10-17T06:30:58.449Z,65.23
2022-10-17T06:33:25.107Z,65.63
2022-10-17T06:35:55.613Z,64.84
2022-10-17T06:38:22.883Z,65.25
2022-10-17T06:40:49.448Z,65.42
2022-10-17T06:43:16.081Z,64.67
2022-10-17T06:45:42.554Z,64.77
2022-10-17T06:48:09.120Z,64.33
2022-10-17T06:50:35.598Z,64.01
2022-10-17T06:53:02.119Z,63.35
2022-10-17T06:55:28.598Z,63.01
2022-10-17T06:57:56.971Z,62.52
2022-10-17T07:00:23.788Z,63.00
2022-10-17T07:02:50.263Z,62.30
2022-10-17T07:05:16.922Z,62.51
2022-10-17T07:07:44.858Z,62.60
2022-10-17T07:10:13.122Z,61.75
2022-10-17T07:12:39.766Z,61.58
2022-10-17T07:15:06.708Z,61.10
2022-10-17T07:17:33.288Z,61.69
2022-10-17T07:19:59.801Z,60.97
2022-10-17T07:22:26.336Z,60.82
2022-10-17T07:24:52.946Z,60.48
2022-10-17T07:27:21.408Z,59.65
2022-10-17T07:29:47.861Z,60.05
2022-10-17T07:32:14.602Z,59.73
2022-10-17T07:34:41.068Z,59.50
2022-10-17T07:37:08.008Z,59.33
2022-10-17T07:39:34.560Z,58.44
2022-10-17T07:42:01.078Z,58.92
2022-10-17T07:44:27.572Z,58.72
2022-10-17T07:46:54.058Z,58.35
2022-10-17T07:49:20.598Z,58.09
2022-10-17T07:51:48.237Z,57.36
2022-10-17T07:54:14.743Z,57.33
2022-10-17T07:56:41.268Z,56.83
2022-10-17T07:59:09.393Z,56.39
2022-10-17T08:01:36.573Z,56.43
2022-10-17T08:04:03.076Z,55.94
2022-10-17T08:06:29.579Z,56.65
2022-10-17T08:08:56.082Z,56.19
2022-10-17T08:11:22.605Z,56.39
2022-10-17T08:13:49.068Z,56.56
2022-10-17T08:16:15.504Z,56.93
2022-10-17T08:18:43.121Z,57.20
2022-10-17T08:21:11.527Z,57.90
2022-10-17T08:23:38.034Z,58.52
2022-10-17T08:26:07.626Z,59.53
2022-10-17T08:28:39.972Z,59.11
2022-10-17T08:31:10.135Z,58.99
2022-10-17T08:33:38.126Z,58.85
2022-10-17T08:36:06.561Z,58.76
2022-10-17T08:38:35.772Z,58.73
2022-10-17T08:41:13.283Z,58.20
2022-10-17T08:43:51.025Z,58.89
2022-10-17T08:46:20.151Z,58.56
2022-10-17T08:48:51.643Z,58.43
2022-10-17T08:52:00.881Z,57.66
2022-10-17T08:54:48.711Z,57.46
2022-10-17T08:57:17.111Z,57.09
2022-10-17T08:59:45.465Z,56.91
2022-10-17T09:02:23.986Z,57.20
2022-10-17T09:04:53.461Z,57.57
2022-10-17T09:07:38.389Z,56.86
2022-10-17T09:10:11.560Z,56.91
2022-10-17T09:13:07.707Z,56.66
2022-10-17T09:15:57.740Z,56.53
2022-10-17T09:18:31.779Z,56.50
2022-10-17T09:21:06.277Z,56.75
2022-10-17T09:23:48.669Z,57.13
2022-10-17T09:26:15.456Z,57.05
2022-10-17T09:28:43.942Z,56.42
2022-10-17T09:31:20.403Z,55.65
2022-10-17T09:33:54.268Z,55.06
2022-10-17T09:36:27.315Z,54.74
2022-10-17T09:38:59.682Z,54.26
2022-10-17T09:41:46.457Z,54.23
2022-10-17T09:44:16.334Z,53.89
2022-10-17T09:46:51.907Z,54.17
2022-10-17T09:49:28.739Z,53.71
2022-10-17T09:51:55.472Z,53.46
2022-10-17T09:54:51.646Z,53.25
2022-10-17T09:57:20.918Z,53.02
2022-10-17T09:59:58.241Z,52.82
2022-10-17T10:02:27.548Z,52.86
2022-10-17T10:05:05.094Z,52.46
2022-10-17T10:07:39.255Z,52.68
2022-10-17T10:10:22.889Z,52.84
2022-10-17T10:13:04.260Z,52.95
2022-10-17T10:15:38.824Z,53.67
2022-10-17T10:18:25.538Z,52.75
2022-10-17T10:21:20.925Z,52.47
2022-10-17T10:23:59.671Z,52.49
2022-10-17T10:26:38.316Z,53.04
2022-10-17T10:29:27.821Z,52.47
2022-10-17T10:31:55.565Z,52.84
2022-10-17T10:34:24.862Z,52.94
2022-10-17T10:36:59.351Z,52.61
2022-10-17T10:39:45.716Z,52.43
2022-10-17T10:42:42.444Z,52.62
2022-10-17T10:45:47.006Z,51.49
2022-10-17T10:48:24.064Z,50.16
2022-10-17T10:50:55.226Z,50.92
2022-10-17T10:53:55.314Z,50.41
2022-10-17T10:56:38.903Z,49.35
2022-10-17T10:59:08.510Z,48.41
2022-10-17T11:02:01.724Z,48.90
2022-10-17T11:04:42.247Z,49.03
2022-10-17T11:07:18.121Z,50.48
2022-10-17T11:10:23.601Z,51.08
2022-10-17T11:13:08.829Z,51.32
2022-10-17T11:15:40.784Z,50.41
2022-10-17T11:18:32.797Z,49.80
2022-10-17T11:21:11.544Z,49.65
2022-10-17T11:23:56.266Z,48.99
2022-10-17T11:26:43.042Z,48.05
2022-10-17T11:29:12.882Z,49.07
2022-10-17T11:31:50.346Z,50.86
2022-10-17T11:34:29.257Z,50.21
2022-10-17T11:37:05.598Z,49.34
2022-10-17T11:42:36.915Z,48.72
2022-10-17T11:45:16.760Z,47.22
2022-10-17T11:47:48.434Z,46.55
2022-10-17T11:53:24.498Z,46.98
2022-10-17T11:55:54.566Z,45.08
2022-10-17T12:01:33.851Z,44.86
2022-10-17T12:04:39.641Z,45.21
2022-10-17T12:07:24.655Z,45.48
2022-10-17T12:10:21.996Z,46.64
2022-10-17T12:12:48.675Z,45.00
2022-10-17T12:15:28.917Z,43.10
2022-10-17T12:17:58.935Z,43.76
2022-10-17T12:20:28.910Z,43.21
2022-10-17T12:23:10.174Z,42.03
2022-10-17T12:26:01.172Z,41.16
2022-10-17T12:28:45.981Z,40.98
2022-10-17T12:31:15.521Z,40.09
2022-10-17T12:33:49.773Z,40.72
2022-10-17T12:36:19.272Z,40.65
2022-10-17T12:38:49.865Z,40.38
2022-10-17T12:41:37.560Z,39.77
2022-10-17T12:44:13.347Z,40.54
2022-10-17T12:46:56.410Z,39.75
2022-10-17T12:49:55.782Z,39.43
2022-10-17T12:52:26.114Z,39.02
2022-10-17T12:55:12.003Z,38.51
2022-10-17T12:57:55.683Z,37.53
2022-10-17T13:00:37.125Z,37.41
2022-10-17T13:03:16.074Z,37.54
2022-10-17T13:05:52.399Z,37.73
2022-10-17T13:08:32.951Z,37.33
2022-10-17T13:11:01.204Z,37.23
2022-10-17T13:13:36.522Z,36.75
2022-10-17T13:16:03.118Z,36.46
2022-10-17T13:18:32.766Z,36.06
2022-10-17T13:21:05.966Z,34.77
2022-10-17T13:23:37.695Z,34.73
2022-10-17T13:26:14.322Z,35.30
2022-10-17T13:28:42.872Z,34.38
2022-10-17T13:31:31.099Z,34.52
2022-10-17T13:34:02.147Z,33.72
2022-10-17T13:36:31.269Z,33.45
2022-10-17T13:39:04.796Z,33.03
2022-10-17T13:41:36.589Z,33.83
2022-10-17T13:44:13.615Z,33.83
2022-10-17T13:46:40.832Z,33.04
2022-10-17T13:49:32.784Z,32.71
2022-10-17T13:52:02.450Z,32.27
2022-10-17T13:54:33.819Z,31.74
2022-10-17T13:57:01.769Z,30.92
2022-10-17T13:59:40.111Z,30.87
2022-10-17T14:02:16.079Z,30.76
2022-10-17T14:05:15.012Z,29.61
2022-10-17T14:08:09.255Z,29.00
2022-10-17T14:10:38.307Z,28.46
2022-10-17T14:13:08.261Z,28.08
2022-10-17T14:15:36.743Z,28.27
2022-10-17T14:18:08.058Z,27.59
2022-10-17T14:21:19.792Z,26.60
2022-10-17T14:23:44.720Z,26.15
2022-10-17T14:26:16.611Z,25.70
2022-10-17T14:29:32.309Z,24.72
2022-10-17T14:32:08.030Z,24.56
2022-10-17T14:34:38.844Z,24.63
2022-10-17T14:40:23.024Z,24.27
2022-10-17T14:42:51.531Z,24.68
2022-10-17T14:45:32.057Z,24.33
2022-10-17T14:48:13.982Z,24.70
2022-10-17T14:50:40.918Z,25.43
2022-10-17T14:53:10.339Z,24.76
2022-10-17T14:55:39.398Z,25.24
2022-10-17T14:58:17.652Z,25.06
2022-10-17T15:00:51.618Z,24.39
2022-10-17T15:03:18.142Z,24.85
2022-10-17T15:05:46.019Z,24.05
2022-10-17T15:08:21.202Z,24.00
2022-10-17T15:10:49.464Z,23.81
2022-10-17T15:13:27.584Z,24.30
2022-10-17T15:15:54.959Z,24.37
2022-10-17T15:18:21.596Z,24.66
2022-10-17T15:20:52.024Z,23.90
2022-10-17T15:23:26.373Z,24.92
2022-10-17T15:25:53.080Z,25.03
2022-10-17T15:28:22.686Z,26.01
2022-10-17T15:30:49.447Z,26.87
2022-10-17T15:33:15.959Z,25.85
2022-10-17T15:35:42.594Z,26.65
2022-10-17T15:38:09.132Z,26.62
2022-10-17T15:40:37.407Z,26.94
2022-10-17T15:43:06.352Z,26.96
2022-10-17T15:45:33.425Z,26.97
2022-10-17T15:48:18.603Z,28.06
2022-10-17T15:50:45.169Z,28.40
2022-10-17T15:53:12.152Z,28.32
2022-10-17T15:55:41.111Z,29.03
2022-10-17T15:58:15.699Z,30.25
2022-10-17T16:00:42.405Z,31.27
2022-10-17T16:03:09.077Z,32.44
2022-10-17T16:05:36.001Z,32.98
2022-10-17T16:08:02.763Z,33.34
2022-10-17T16:10:29.252Z,32.65
2022-10-17T16:12:55.833Z,34.17
2022-10-17T16:15:25.201Z,35.45
2022-10-17T16:17:53.984Z,36.62
2022-10-17T16:20:22.356Z,37.28
2022-10-17T16:22:49.746Z,38.11
2022-10-17T16:25:23.197Z,39.27
2022-10-17T16:27:53.239Z,40.23
2022-10-17T16:32:49.675Z,41.01
2022-10-17T16:35:20.065Z,41.88
2022-10-17T16:37:46.658Z,42.99
2022-10-17T16:40:13.968Z,42.59
2022-10-17T16:42:40.560Z,42.61
2022-10-17T16:45:07.710Z,43.23
2022-10-17T16:47:34.190Z,43.41
2022-10-17T16:50:00.737Z,44.12
2022-10-17T16:52:27.377Z,44.06
2022-10-17T16:54:53.979Z,44.37
2022-10-17T16:57:20.479Z,44.37
2022-10-17T16:59:46.947Z,45.13
2022-10-17T17:02:16.345Z,45.46
2022-10-17T17:04:45.505Z,46.07
2022-10-17T17:07:11.971Z,45.74
2022-10-17T17:09:39.419Z,46.08
2022-10-17T17:12:06.029Z,46.43
2022-10-17T17:14:32.523Z,46.85
2022-10-17T17:17:01.731Z,47.42
2022-10-17T17:19:28.206Z,47.59
2022-10-17T17:21:54.649Z,47.95
2022-10-17T17:24:21.507Z,48.15
2022-10-17T17:26:53.726Z,48.73
2022-10-17T17:29:21.098Z,48.84
2022-10-17T17:31:48.087Z,49.20
2022-10-17T17:34:18.009Z,49.43
2022-10-17T17:36:45.228Z,49.87
2022-10-17T17:39:14.196Z,51.86
2022-10-17T17:41:42.168Z,51.77
2022-10-17T17:44:14.040Z,51.60
2022-10-17T17:46:43.230Z,52.15
2022-10-17T17:49:10.996Z,52.03
2022-10-17T17:51:37.667Z,52.60
2022-10-17T17:54:04.241Z,52.96
2022-10-17T17:56:30.747Z,53.00
2022-10-17T17:59:01.088Z,53.17
2022-10-17T18:01:30.634Z,53.58
2022-10-17T18:03:58.975Z,53.83
2022-10-17T18:06:26.656Z,54.37
2022-10-17T18:08:55.918Z,52.92
2022-10-17T18:11:22.514Z,54.70
2022-10-17T18:13:54.286Z,54.24
2022-10-17T18:16:20.979Z,54.33
2022-10-17T18:18:48.978Z,53.77
2022-10-17T18:21:15.980Z,54.41
2022-10-17T18:23:44.464Z,54.33
2022-10-17T18:26:11.428Z,54.64
2022-10-17T18:28:39.425Z,54.82
2022-10-17T18:31:17.935Z,55.03
2022-10-17T18:33:45.417Z,55.24
2022-10-17T18:36:14.627Z,55.36
2022-10-17T18:38:41.765Z,55.57
2022-10-17T18:41:14.545Z,55.18
2022-10-17T18:43:43.250Z,56.04
2022-10-17T18:46:15.140Z,56.27
2022-10-17T18:48:44.387Z,56.10
2022-10-17T18:51:12.565Z,56.70
2022-10-17T18:53:44.198Z,56.53
2022-10-17T18:56:11.537Z,56.83
2022-10-17T18:58:39.474Z,56.67
2022-10-17T19:01:09.213Z,56.75
2022-10-17T19:03:35.815Z,56.96
2022-10-17T19:06:04.853Z,57.15
2022-10-17T19:08:33.181Z,56.80
2022-10-17T19:11:12.902Z,56.95
2022-10-17T19:13:40.685Z,57.02
2022-10-17T19:16:09.800Z,56.98
2022-10-17T19:18:37.155Z,57.47
2022-10-17T19:21:06.891Z,57.26
2022-10-17T19:23:34.011Z,57.59
2022-10-17T19:26:04.955Z,57.70
2022-10-17T19:28:33.020Z,57.36
2022-10-17T19:31:00.515Z,57.45
2022-10-17T19:35:58.720Z,58.05
2022-10-17T19:38:25.936Z,57.93
2022-10-17T19:40:53.433Z,57.81
2022-10-17T19:43:20.566Z,58.24
2022-10-17T19:46:01.252Z,58.05
2022-10-17T19:48:30.984Z,58.68
2022-10-17T19:50:58.796Z,57.93
2022-10-17T19:53:25.754Z,58.51
2022-10-17T19:55:52.287Z,57.85
2022-10-17T19:58:19.559Z,58.39
2022-10-17T20:00:48.116Z,58.51
2022-10-17T20:03:14.744Z,58.48
2022-10-17T20:05:41.541Z,58.65
2022-10-17T20:08:08.551Z,58.92
2022-10-17T20:10:35.027Z,58.90
2022-10-17T20:13:01.658Z,58.63
2022-10-17T20:15:28.267Z,58.90
2022-10-17T20:17:54.845Z,58.83
2022-10-17T20:20:21.629Z,58.32
2022-10-17T20:22:48.189Z,58.74
2022-10-17T20:25:14.818Z,58.85
2022-10-17T20:27:41.301Z,58.75
2022-10-17T20:30:08.763Z,58.32
2022-10-17T20:32:39.478Z,58.29
2022-10-17T20:35:07.531Z,58.29
2022-10-17T20:37:41.573Z,58.18
2022-10-17T20:40:33.665Z,58.94
2022-10-17T20:42:56.723Z,58.78
2022-10-17T20:45:37.433Z,59.04
2022-10-17T20:48:15.309Z,58.74
2022-10-17T20:50:43.637Z,58.99
2022-10-17T20:53:35.429Z,59.24
2022-10-17T20:56:04.166Z,59.31
2022-10-17T20:58:30.896Z,58.80
2022-10-17T21:00:58.714Z,59.03
2022-10-17T21:03:25.317Z,59.39
2022-10-17T21:05:51.805Z,59.50
2022-10-17T21:08:18.276Z,59.49
2022-10-17T21:10:50.586Z,59.63
2022-10-17T21:13:20.941Z,59.73
2022-10-17T21:15:47.454Z,59.83
2022-10-17T21:18:13.985Z,59.78
2022-10-17T21:20:40.537Z,59.79
2022-10-17T21:23:09.511Z,59.85
2022-10-17T21:25:36.052Z,59.89
2022-10-17T21:28:02.606Z,60.12
2022-10-17T21:30:29.425Z,60.55
2022-10-17T21:32:56.129Z,60.27
2022-10-17T21:35:22.798Z,60.75
2022-10-17T21:37:49.266Z,60.76
2022-10-17T21:40:15.813Z,60.99
2022-10-17T21:42:42.338Z,61.05
2022-10-17T21:45:15.027Z,61.33
2022-10-17T21:47:49.840Z,61.16
2022-10-17T21:50:27.645Z,61.21
2022-10-17T21:52:54.193Z,61.32
2022-10-17T21:55:20.848Z,61.06
2022-10-17T21:57:47.350Z,61.39
2022-10-17T22:00:14.217Z,61.45
2022-10-17T22:02:40.803Z,61.44
2022-10-17T22:05:07.637Z,61.00
2022-10-17T22:07:37.199Z,60.70
2022-10-17T22:10:03.972Z,61.26
2022-10-17T22:12:30.636Z,60.83
2022-10-17T22:14:57.275Z,60.95
2022-10-17T22:17:26.505Z,61.12
2022-10-17T22:19:53.166Z,60.94
2022-10-17T22:22:19.792Z,61.12
2022-10-17T22:24:46.415Z,61.36
2022-10-17T22:27:12.985Z,61.00
2022-10-17T22:29:39.686Z,61.46
2022-10-17T22:32:08.621Z,60.99
2022-10-17T22:34:35.179Z,61.34
2022-10-17T22:37:04.673Z,60.76
2022-10-17T22:39:31.195Z,60.96
2022-10-17T22:41:57.717Z,60.71
2022-10-17T22:44:33.124Z,61.02
2022-10-17T22:46:59.587Z,60.74
2022-10-17T22:49:26.059Z,61.35
2022-10-17T22:51:52.551Z,60.74
2022-10-17T22:54:18.977Z,61.05
2022-10-17T22:56:45.485Z,60.86
2022-10-17T22:59:11.960Z,61.39
2022-10-17T23:01:38.472Z,60.60
2022-10-17T23:04:05.036Z,60.49
2022-10-17T23:06:31.552Z,60.42
2022-10-17T23:08:58.402Z,60.54
2022-10-17T23:11:24.967Z,60.82
2022-10-17T23:13:51.426Z,60.70
2022-10-17T23:16:17.947Z,61.03
2022-10-17T23:18:44.671Z,60.91
2022-10-17T23:21:11.594Z,60.74
2022-10-17T23:23:38.060Z,60.92
2022-10-17T23:26:10.976Z,60.80
2022-10-17T23:28:38.355Z,60.57
2022-10-17T23:31:16.341Z,60.51
2022-10-17T23:33:47.089Z,60.67
2022-10-17T23:36:16.186Z,60.41
2022-10-17T23:38:44.553Z,60.57
2022-10-17T23:41:11.872Z,59.68
2022-10-17T23:43:38.419Z,60.06
2022-10-17T23:46:06.242Z,60.08
2022-10-17T23:48:33.560Z,60.81
2022-10-17T23:51:00.175Z,60.25
2022-10-17T23:53:26.687Z,60.19
2022-10-17T23:55:53.431Z,59.76
2022-10-17T23:58:19.938Z,60.03
